Logo AVAMET
Benvolgut visitant, si us plau, ingressa Recuperar contrasenya
AVAMET paisatges

València Penya-roja

Dades diàries. Acumulats / Últims 30 dies disponibles

Data Temperatura (°C) Humitat rel. (%) Pressió rel. (hPa) Vent (km/h) Precipitació
Mínima Mitjana Màxima Amplitud
tèrmica
Mínima Mitjana Màxima Mínima Mitjana Màxima Predom. Mitjana Ràfega
màxima
Total
(mm)
Índex-n
Mínima Mitjana Màxima Mínima Mitjana Màxima n
0 a 1
P0 max
mm 5'
Dades mensuals acumulades fins l'últim dia disponible
09/2020 18,5 21,4 23,8 24,6 25,2 27,8 30,8 12,3 34 67 93 1.006 1.014 1.020   4,0 49,0 15,3
Dades anuals acumulades fins l'últim dia disponible
2020 4,7 17,0 26,4 19,9 9,3 23,4 31,9 27,2 15 69 99 992 1.013 1.029   7,5 102,0 328,4
Últims 30 dies disponibles
18-09-2020 20,4     23,6     26,5 6,1 66 79 93 1.008 1.010 1.012 NNW 4,4 49,0 3,5
17-09-2020 23,8     25,4     28,5 4,7 61 76 85 1.009 1.011 1.013 ESE 2,7 20,9 0,0
16-09-2020 22,5     25,4     28,2 5,7 53 73 85 1.011 1.013 1.015 E 3,3 23,4 0,0
15-09-2020 23,2     25,8     29,4 6,2 52 72 83 1.014 1.016 1.018 SE 3,9 23,4 0,0
14-09-2020 21,0     25,2     28,2 7,2 50 62 80 1.016 1.018 1.019 E 3,0 19,4 0,0
13-09-2020 22,0     26,0     30,8 8,8 34 58 79 1.016 1.017 1.019 E 2,4 17,3 0,0
12-09-2020 22,3     25,3     28,6 6,3 52 69 80 1.010 1.013 1.016 E 5,1 27,0 0,0
11-09-2020 20,7     24,8     28,6 7,9 42 66 81 1.008 1.010 1.012 ENE 4,6 27,0 0,0
10-09-2020 20,4     23,9     27,8 7,4 44 67 80 1.011 1.013 1.016 SE 2,6 20,9 0,0
09-09-2020 20,2     23,1     26,2 6,0 50 62 72 1.014 1.016 1.017 NE 3,9 23,4 0,0
08-09-2020 18,5     22,9     26,6 8,1 38 60 92 1.016 1.017 1.019 ENE 3,3 34,2 11,8 0,63 4,00
07-09-2020 22,4     23,6     25,2 2,8 50 67 78 1.009 1.013 1.016 ENE 7,9 39,2 0,0
06-09-2020 20,9     25,0     28,7 7,8 48 69 79 1.010 1.012 1.014 SE 3,4 24,5 0,0
05-09-2020 21,1     24,8     27,7 6,6 53 69 78 1.013 1.015 1.018 SE 3,5 23,4 0,0
04-09-2020 21,1     24,9     28,1 7,0 52 67 76 1.017 1.018 1.020 SE 4,6 27,0 0,0
03-09-2020 21,9     25,0     27,7 5,8 54 69 77 1.014 1.016 1.019 ESE 4,8 31,7 0,0
02-09-2020 22,4     24,7     27,1 4,7 51 64 73 1.008 1.011 1.014 E 4,9 28,1 0,0
01-09-2020 20,5     23,5     26,1 5,6 61 64 70 1.006 1.009 1.012 NE 4,2 19,4 0,0
31-08-2020 19,2     23,0     26,4 7,2 32 50 65 1.011 1.013 1.015 SE 7,5 33,1 0,0
30-08-2020 18,9     22,6     25,4 6,5 31 44 65 1.004 1.008 1.012 NE 7,1 31,7 0,1
29-08-2020 22,3     24,8     26,8 4,5 46 60 80 998 999 1.004 ENE 6,9 34,2 0,9
28-08-2020 25,3     27,3     29,3 4,0 67 80 89 997 1.002 1.008 E 4,7 31,7 0,0
27-08-2020 24,9     27,4     29,8 4,9 62 75 88 1.007 1.011 1.013 E 3,8 25,6 0,0
26-08-2020 24,6     27,5     29,7 5,1 68 79 89 1.011 1.012 1.014 E 4,7 24,5 0,0
25-08-2020 25,0     27,3     30,3 5,3 64 77 86 1.009 1.010 1.012 ESE 6,3 29,5 0,0
24-08-2020 26,1     27,2     29,3 3,2 64 77 85 1.009 1.011 1.013 ESE 4,9 29,5 0,0
23-08-2020 26,1     27,5     29,1 3,0 61 75 84 1.012 1.014 1.015 ENE 5,9 34,2 0,0
22-08-2020 25,1     27,9     30,5 5,4 65 79 90 1.010 1.013 1.015 E 3,5 27,0 0,0
21-08-2020 24,7     27,7     30,6 5,9 64 74 85 1.006 1.008 1.010 E 4,0 22,0 0,0
20-08-2020 24,3     27,6     31,2 6,9 48 66 87 1.003 1.005 1.007 ENE 4,7 22,0 0,0
Últims 13 mesos disponibles
08/2020 18,9 24,3 26,4 27,0 25,4 29,6 31,7 12,8 44 69 81 999 1.009 1.014 E 5,3 37,8 1,0
07/2020 21,1 23,9 26,1 26,3 26,4 28,8 31,9 10,8 49 73 79 1.006 1.011 1.015 E 6,7 39,2 13,6
06/2020 16,2 20,3 23,7 23,2 20,2 26,2 31,3 15,1 33 69 81 1.000 1.009 1.016 ENE 8,3 64,8 24,9
05/2020 13,8 18,1 20,9 21,2 20,1 24,5 31,6 17,8 45 66 81 1.000 1.012 1.022 ENE 8,3 62,3 18,2
04/2020 10,5 13,9 18,4 16,6 16,0 19,7 26,3 15,8 41 74 94 999 1.010 1.020 ENE 7,3 62,3 43,6
03/2020 7,6 11,8 17,0 14,7 12,8 18,1 24,7 17,1 36 67 94 1.001 1.011 1.021 NE 10,8 102,0 55,6
02/2020 8,4 11,6 15,0 15,3 14,9 20,4 27,5 19,1 42 68 89 1.007 1.019 1.027 NW 6,8 60,1 1,8
01/2020 4,7 8,9 15,5 12,2 9,3 16,7 22,3 17,6 50 70 90 1.010 1.019 1.026 NW 8,8 72,4 154,4
12/2019 7,4 11,9 18,5 14,7 13,8 18,6 24,8 17,4 47 66 92 996 1.013 1.027 NW 11,8 104,0 84,8
11/2019 6,4 13,0 21,4 16,3 15,8 20,3 29,1 22,7 36 52 76 992 1.004 1.012 NW 15,4 76,0 4,7
10/2019 12,7 17,4 21,7 20,9 17,6 25,6 35,1 22,4 40 65 80 1.002 1.010 1.016 WNW 7,0 56,2 24,3
09/2019 16,1 21,2 24,4 24,3 21,5 27,5 33,8 17,7 37 70 82 1.004 1.011 1.018 NE 7,9 72,4 129,5
08/2019 19,3 23,7 27,3 26,6 27,0 29,7 40,9 21,6 47 70 82 1.004 1.010 1.014 ENE 7,3 62,3 4,1
Tots els anys disponibles
2019 2,7 15,6 27,3 18,9 13,2 22,8 40,9 38,2 27 63 96 988 1.011 1.028 NW 9,1 104,0 353,2
2018 3,9 15,9 26,6 18,9 9,3 22,5 35,6 31,7 33 64 96 992 1.014 1.035 E 9,1 92,9 720,1
2017 2,4 15,8 26,3 19,0 10,2 22,6 36,1 33,7 52 63 71 1.016 1.019 1.023 N 8,4 90,7 321,7
2016 4,3 16,2 26,7 19,0 11,4 23,2 35,8 31,5 51 65 74 1.015 1.019 1.031 N 8,3 100,0 601,3
Temperatura (°C)
Humitat relativa (%)
Velocitat del vent i ràfega màxima (km/h)
Direcció del vent (°)
Precipitació (mm)
Nota sobre les dades: s'avisa a l'usuari de la provisionalitat i no oficialitat d'aquestes dades
Logo AVAMET blanc
Web allotjada a Sollutia
Llicència de Creative CommonsLa web d'AVAMET i els seus continguts estan subjectes a una llicència de
Reconeixement - No Comercial - Compartir igual
Últimes estacions: Castelló de la Plana - Grup Sant Agustí (Soci), Llíria - Urb. San Gerardo (Soci), Xàtiva - Ausiàs March (Soci), Gandia - Parpalló/Borrell (AVAMET), Olocau del Rei - La Magdalena (Electra/Soci), Ademuz - IES Ademuz (Soci), La Jana (Ajuntament Soci), Villahermosa del Río - la Cañada (Soci), Benassal (Ajuntament Soci), la Torre de les Maçanes - la Canaleta (Soci) - - -